createdAt,value
2018-07-06T00:00:35.298Z,66.60
2018-07-06T00:03:15.094Z,66.50
2018-07-06T00:05:54.757Z,66.60
2018-07-06T00:08:34.488Z,66.70
2018-07-06T00:11:14.143Z,66.70
2018-07-06T00:13:53.792Z,66.70
2018-07-06T00:16:33.731Z,66.80
2018-07-06T00:19:13.564Z,66.90
2018-07-06T00:21:53.223Z,66.90
2018-07-06T00:24:32.981Z,67.00
2018-07-06T00:27:12.644Z,67.00
2018-07-06T00:29:52.295Z,67.00
2018-07-06T00:32:32.243Z,67.00
2018-07-06T00:35:11.958Z,66.90
2018-07-06T00:37:51.687Z,66.90
2018-07-06T00:40:31.349Z,67.00
2018-07-06T00:43:11.091Z,67.10
2018-07-06T00:45:50.741Z,67.10
2018-07-06T00:48:30.525Z,67.10
2018-07-06T00:51:10.342Z,67.20
2018-07-06T00:53:50.125Z,67.20
2018-07-06T00:56:30.032Z,67.20
2018-07-06T00:59:09.950Z,67.20
2018-07-06T01:01:49.895Z,67.40
2018-07-06T01:04:29.781Z,67.40
2018-07-06T01:07:09.547Z,67.40
2018-07-06T01:09:49.223Z,67.50
2018-07-06T01:12:34.645Z,67.40
2018-07-06T01:15:19.645Z,67.40
2018-07-06T01:17:59.394Z,67.50
2018-07-06T01:20:38.979Z,67.70
2018-07-06T01:23:18.681Z,67.60
2018-07-06T01:25:58.343Z,67.60
2018-07-06T01:28:38.274Z,67.70
2018-07-06T01:31:17.990Z,67.70
2018-07-06T01:33:57.774Z,67.90
2018-07-06T01:36:37.496Z,67.80
2018-07-06T01:39:17.212Z,67.70
2018-07-06T01:41:57.143Z,67.80
2018-07-06T01:44:37.078Z,67.90
2018-07-06T01:47:16.856Z,67.90
2018-07-06T01:49:56.523Z,68.60
2018-07-06T01:52:36.276Z,67.90
2018-07-06T01:55:16.103Z,67.80
2018-07-06T01:57:55.991Z,67.90
2018-07-06T02:00:35.838Z,68.00
2018-07-06T02:03:15.833Z,68.00
2018-07-06T02:05:55.748Z,68.20
2018-07-06T02:08:35.469Z,68.10
2018-07-06T02:11:15.234Z,68.20
2018-07-06T02:13:55.141Z,68.20
2018-07-06T02:16:35.038Z,68.30
2018-07-06T02:19:14.983Z,68.50
2018-07-06T02:21:54.734Z,68.40
2018-07-06T02:24:34.457Z,68.50
2018-07-06T02:27:14.082Z,68.60
2018-07-06T02:29:53.904Z,68.80
2018-07-06T02:35:07.505Z,68.90
2018-07-06T02:37:47.297Z,68.90
2018-07-06T02:40:27.157Z,68.90
2018-07-06T02:43:07.151Z,69.10
2018-07-06T02:45:46.996Z,69.20
2018-07-06T02:48:26.897Z,69.30
2018-07-06T02:51:06.905Z,69.30
2018-07-06T02:53:46.839Z,69.40
2018-07-06T02:56:26.680Z,69.40
2018-07-06T02:59:06.431Z,69.50
2018-07-06T03:01:46.075Z,69.60
2018-07-06T03:04:25.639Z,69.70
2018-07-06T03:07:05.453Z,69.70
2018-07-06T03:09:45.177Z,69.90
2018-07-06T03:12:25.043Z,70.00
2018-07-06T03:15:04.660Z,70.00
2018-07-06T03:17:44.492Z,70.20
2018-07-06T03:20:24.125Z,70.20
2018-07-06T03:23:03.829Z,70.30
2018-07-06T03:25:43.497Z,70.30
2018-07-06T03:28:23.471Z,70.40
2018-07-06T03:31:03.258Z,70.40
2018-07-06T03:33:43.185Z,70.50
2018-07-06T03:36:23.045Z,70.60
2018-07-06T03:39:02.796Z,71.50
2018-07-06T03:41:42.689Z,70.90
2018-07-06T03:44:22.425Z,70.80
2018-07-06T03:47:02.184Z,70.90
2018-07-06T03:49:42.105Z,70.90
2018-07-06T03:52:21.880Z,71.00
2018-07-06T03:55:01.771Z,71.00
2018-07-06T03:57:41.345Z,71.10
2018-07-06T04:00:21.087Z,71.10
2018-07-06T04:03:00.837Z,71.20
2018-07-06T04:05:40.776Z,71.10
2018-07-06T04:08:20.656Z,71.10
2018-07-06T04:11:00.531Z,71.20
2018-07-06T04:13:40.231Z,71.30
2018-07-06T04:16:20.037Z,71.40
2018-07-06T04:19:08.374Z,71.40
2018-07-06T04:21:48.229Z,71.50
2018-07-06T04:24:28.429Z,71.50
2018-07-06T04:27:08.520Z,71.60
2018-07-06T04:29:48.376Z,71.60
2018-07-06T04:32:28.294Z,71.90
2018-07-06T04:35:08.010Z,71.80
2018-07-06T04:37:48.128Z,71.90
2018-07-06T04:40:27.853Z,72.00
2018-07-06T04:43:07.647Z,72.00
2018-07-06T04:45:48.161Z,72.00
2018-07-06T04:48:28.017Z,72.20
2018-07-06T04:51:07.858Z,72.00
2018-07-06T04:53:47.605Z,72.10
2018-07-06T04:56:27.497Z,72.20
2018-07-06T04:59:07.244Z,72.20
2018-07-06T05:01:46.939Z,73.10
2018-07-06T05:04:26.878Z,72.60
2018-07-06T05:07:06.642Z,72.30
2018-07-06T05:09:46.511Z,72.30
2018-07-06T05:12:26.358Z,72.60
2018-07-06T05:15:06.131Z,72.70
2018-07-06T05:17:45.889Z,72.90
2018-07-06T05:20:25.685Z,73.20
2018-07-06T05:23:05.446Z,73.40
2018-07-06T05:25:45.067Z,73.40
2018-07-06T05:28:24.792Z,73.50
2018-07-06T05:31:04.560Z,73.80
2018-07-06T05:33:44.263Z,73.90
2018-07-06T05:36:24.172Z,74.00
2018-07-06T05:39:05.097Z,74.20
2018-07-06T05:41:44.965Z,74.40
2018-07-06T05:44:25.041Z,74.60
2018-07-06T05:47:04.844Z,74.70
2018-07-06T05:49:44.541Z,74.80
2018-07-06T05:52:24.287Z,75.00
2018-07-06T05:55:03.910Z,75.00
2018-07-06T05:57:43.647Z,75.10
2018-07-06T06:00:23.432Z,75.10
2018-07-06T06:03:03.219Z,75.20
2018-07-06T06:05:43.074Z,75.30
2018-07-06T06:08:10.450Z,75.40
2018-07-06T06:10:38.965Z,75.50
2018-07-06T06:13:07.527Z,75.50
2018-07-06T06:15:36.125Z,75.60
2018-07-06T06:18:08.137Z,75.50
2018-07-06T06:20:37.248Z,75.50
2018-07-06T06:23:06.384Z,75.60
2018-07-06T06:25:38.390Z,75.70
2018-07-06T06:28:07.055Z,76.40
2018-07-06T06:30:35.674Z,75.50
2018-07-06T06:33:04.307Z,75.70
2018-07-06T06:35:32.932Z,75.70
2018-07-06T06:38:01.677Z,75.70
2018-07-06T06:40:30.312Z,75.70
2018-07-06T06:42:59.216Z,75.90
2018-07-06T06:45:27.990Z,76.10
2018-07-06T06:47:56.567Z,76.00
2018-07-06T06:50:25.286Z,76.10
2018-07-06T06:52:53.944Z,76.40
2018-07-06T06:55:22.505Z,79.00
2018-07-06T06:57:51.071Z,79.10
2018-07-06T07:00:21.150Z,79.10
2018-07-06T07:02:48.286Z,78.80
2018-07-06T07:05:17.319Z,78.50
2018-07-06T07:07:45.974Z,78.60
2018-07-06T07:10:14.593Z,78.40
2018-07-06T07:12:43.236Z,78.40
2018-07-06T07:15:11.832Z,78.40
2018-07-06T07:17:40.419Z,78.50
2018-07-06T07:20:09.036Z,78.60
2018-07-06T07:22:37.630Z,78.50
2018-07-06T07:25:06.206Z,78.60
2018-07-06T07:27:34.830Z,78.80
2018-07-06T07:30:03.512Z,78.80
2018-07-06T07:32:32.120Z,78.80
2018-07-06T07:35:00.780Z,78.70
2018-07-06T07:37:29.361Z,78.90
2018-07-06T07:39:57.961Z,79.00
2018-07-06T07:42:26.541Z,79.20
2018-07-06T07:44:55.169Z,79.00
2018-07-06T07:47:23.782Z,79.20
2018-07-06T07:49:52.388Z,79.20
2018-07-06T07:52:32.062Z,79.40
2018-07-06T07:55:00.733Z,79.00
2018-07-06T07:57:29.248Z,79.30
2018-07-06T07:59:57.818Z,79.30
2018-07-06T08:02:26.461Z,79.40
2018-07-06T08:04:55.116Z,79.40
2018-07-06T08:07:23.678Z,79.60
2018-07-06T08:09:52.409Z,79.70
2018-07-06T08:12:21.044Z,79.80
2018-07-06T08:14:49.816Z,79.90
2018-07-06T08:17:18.336Z,80.00
2018-07-06T08:19:46.900Z,79.90
2018-07-06T08:22:15.446Z,79.90
2018-07-06T08:24:43.965Z,92.10
2018-07-06T08:27:12.502Z,95.20
2018-07-06T08:29:41.018Z,97.00
2018-07-06T08:32:09.551Z,98.40
2018-07-06T08:34:49.400Z,98.90
2018-07-06T08:38:33.000Z,99.40
2018-07-06T08:41:02.017Z,98.70
2018-07-06T08:43:30.702Z,98.90
2018-07-06T08:45:59.288Z,98.80
2018-07-06T08:48:27.818Z,98.40
2018-07-06T08:50:56.402Z,98.30
2018-07-06T08:53:25.015Z,97.60
2018-07-06T08:55:53.566Z,98.00
2018-07-06T08:58:22.144Z,97.40
2018-07-06T09:00:50.799Z,97.40
2018-07-06T09:03:19.383Z,97.10
2018-07-06T09:05:47.932Z,97.40
2018-07-06T09:08:16.578Z,96.80
2018-07-06T09:10:45.090Z,96.70
2018-07-06T09:13:13.656Z,96.70
2018-07-06T09:15:42.141Z,96.40
2018-07-06T09:18:10.658Z,96.90
2018-07-06T09:20:39.163Z,96.50
2018-07-06T09:23:07.698Z,96.20
2018-07-06T09:25:36.324Z,96.40
2018-07-06T09:28:04.770Z,96.30
2018-07-06T09:30:33.508Z,96.10
2018-07-06T09:33:01.863Z,96.30
2018-07-06T09:35:30.381Z,96.20
2018-07-06T09:37:58.956Z,96.10
2018-07-06T09:40:27.463Z,95.90
2018-07-06T09:42:56.109Z,95.80
2018-07-06T09:45:24.610Z,95.80
2018-07-06T09:47:53.121Z,95.80
2018-07-06T09:50:21.616Z,95.80
2018-07-06T09:52:50.174Z,95.50
2018-07-06T09:55:18.808Z,95.70
2018-07-06T09:57:47.409Z,95.40
2018-07-06T10:00:21.312Z,95.40
2018-07-06T10:02:49.896Z,95.10
2018-07-06T10:05:18.471Z,95.40
2018-07-06T10:07:47.006Z,95.30
2018-07-06T10:10:15.616Z,95.30
2018-07-06T10:12:44.088Z,95.50
2018-07-06T10:15:12.601Z,95.30
2018-07-06T10:17:41.158Z,94.80
2018-07-06T10:20:09.687Z,95.20
2018-07-06T10:22:38.254Z,95.30
2018-07-06T10:25:06.812Z,95.20
2018-07-06T10:27:45.735Z,95.10
2018-07-06T10:30:29.945Z,95.20
2018-07-06T10:32:58.570Z,95.50
2018-07-06T10:35:27.017Z,95.10
2018-07-06T10:37:55.753Z,95.00
2018-07-06T10:40:24.289Z,95.00
2018-07-06T10:42:52.928Z,95.60
2018-07-06T10:45:21.504Z,95.20
2018-07-06T10:50:18.349Z,94.40
2018-07-06T10:52:46.858Z,94.50
2018-07-06T10:55:15.399Z,94.90
2018-07-06T10:57:43.967Z,94.90
2018-07-06T11:00:12.772Z,94.80
2018-07-06T11:02:41.348Z,95.00
2018-07-06T11:05:09.964Z,94.70
2018-07-06T11:07:38.517Z,94.50
2018-07-06T11:10:07.108Z,94.70
2018-07-06T11:12:35.625Z,94.80
2018-07-06T11:15:04.333Z,94.70
2018-07-06T11:17:32.871Z,94.70
2018-07-06T11:20:01.439Z,94.80
2018-07-06T11:22:30.221Z,94.50
2018-07-06T11:24:58.772Z,94.30
2018-07-06T11:27:27.324Z,94.30
2018-07-06T11:29:55.952Z,94.40
2018-07-06T11:32:24.475Z,94.10
2018-07-06T11:34:53.029Z,94.20
2018-07-06T11:37:21.640Z,94.40
2018-07-06T11:39:50.186Z,94.40
2018-07-06T11:42:18.687Z,94.70
2018-07-06T11:44:47.290Z,94.70
2018-07-06T11:47:15.912Z,94.80
2018-07-06T11:49:44.492Z,94.70
2018-07-06T11:52:13.119Z,94.90
2018-07-06T11:54:41.727Z,94.60
2018-07-06T11:57:10.237Z,94.40
2018-07-06T11:59:38.786Z,94.90
2018-07-06T12:02:07.364Z,94.60
2018-07-06T12:04:36.079Z,94.70
2018-07-06T12:07:04.630Z,94.70
2018-07-06T12:09:33.236Z,94.70
2018-07-06T12:12:01.802Z,94.90
2018-07-06T12:14:30.477Z,94.90
2018-07-06T12:16:59.116Z,94.90
2018-07-06T12:19:27.665Z,94.80
2018-07-06T12:21:56.186Z,94.90
2018-07-06T12:24:24.745Z,94.90
2018-07-06T12:26:53.297Z,94.80
2018-07-06T12:29:21.809Z,94.80
2018-07-06T12:31:50.407Z,94.80
2018-07-06T12:34:18.969Z,94.90
2018-07-06T12:36:47.580Z,94.80
2018-07-06T12:39:16.104Z,94.90
2018-07-06T12:41:44.661Z,94.90
2018-07-06T12:44:13.212Z,94.90
2018-07-06T12:46:41.774Z,94.90
2018-07-06T12:49:10.305Z,94.90
2018-07-06T12:51:38.875Z,94.80
2018-07-06T12:54:07.395Z,94.80
2018-07-06T12:56:35.999Z,94.90
2018-07-06T12:59:04.584Z,94.90
2018-07-06T13:01:33.120Z,94.80
2018-07-06T13:04:01.671Z,94.80
2018-07-06T13:06:30.209Z,94.80
2018-07-06T13:08:58.781Z,94.90
2018-07-06T13:11:27.377Z,94.90
2018-07-06T13:13:55.890Z,94.80
2018-07-06T13:16:24.548Z,94.80
2018-07-06T13:18:53.093Z,94.80
2018-07-06T13:21:21.906Z,94.70
2018-07-06T13:23:50.468Z,94.70
2018-07-06T13:26:19.055Z,94.70
2018-07-06T13:31:16.553Z,94.50
2018-07-06T13:33:45.335Z,94.60
2018-07-06T13:36:14.333Z,94.70
2018-07-06T13:41:11.150Z,92.40
2018-07-06T13:43:39.740Z,93.40
2018-07-06T13:46:08.353Z,93.80
2018-07-06T13:48:36.899Z,93.70
2018-07-06T13:51:05.478Z,93.70
2018-07-06T13:53:34.094Z,93.80
2018-07-06T13:56:02.666Z,93.90
2018-07-06T13:58:31.211Z,94.00
2018-07-06T14:01:00.103Z,94.00
2018-07-06T14:03:28.893Z,94.00
2018-07-06T14:05:57.438Z,94.00
2018-07-06T14:08:26.030Z,94.00
2018-07-06T14:10:54.605Z,94.10
2018-07-06T14:13:23.432Z,94.10
2018-07-06T14:15:52.067Z,94.10
2018-07-06T14:18:20.611Z,94.20
2018-07-06T14:20:49.237Z,94.60
2018-07-06T14:23:17.826Z,94.30
2018-07-06T14:25:47.184Z,94.20
2018-07-06T14:28:15.849Z,94.20
2018-07-06T14:30:44.354Z,94.10
2018-07-06T14:33:12.904Z,94.00
2018-07-06T14:35:41.516Z,94.10
2018-07-06T14:38:10.059Z,94.10
2018-07-06T14:40:38.638Z,94.10
2018-07-06T14:43:07.184Z,94.00
2018-07-06T14:45:35.709Z,93.90
2018-07-06T14:48:04.305Z,93.90
2018-07-06T14:50:32.814Z,94.00
2018-07-06T14:53:01.427Z,91.00
2018-07-06T14:55:29.931Z,91.30
2018-07-06T14:57:58.506Z,92.00
2018-07-06T15:00:27.058Z,92.80
2018-07-06T15:02:55.651Z,92.70
2018-07-06T15:05:24.251Z,92.90
2018-07-06T15:07:52.792Z,93.10
2018-07-06T15:10:21.363Z,93.10
2018-07-06T15:12:49.962Z,93.10
2018-07-06T15:15:18.474Z,93.20
2018-07-06T15:17:47.191Z,93.30
2018-07-06T15:20:15.730Z,93.40
2018-07-06T15:22:44.384Z,93.30
2018-07-06T15:25:12.928Z,93.30
2018-07-06T15:27:41.524Z,93.30
2018-07-06T15:30:10.135Z,93.40
2018-07-06T15:32:38.694Z,93.40
2018-07-06T15:35:07.298Z,93.40
2018-07-06T15:37:35.881Z,93.40
2018-07-06T15:40:04.503Z,93.40
2018-07-06T15:42:33.067Z,93.50
2018-07-06T15:45:01.595Z,93.50
2018-07-06T15:47:30.164Z,93.60
2018-07-06T15:49:58.728Z,93.60
2018-07-06T15:52:27.260Z,93.50
2018-07-06T15:54:55.886Z,93.40
2018-07-06T15:57:24.454Z,93.50
2018-07-06T15:59:52.975Z,93.50
2018-07-06T16:02:21.841Z,93.40
2018-07-06T16:04:50.445Z,93.30
2018-07-06T16:07:19.026Z,93.40
2018-07-06T16:09:47.590Z,93.40
2018-07-06T16:12:16.137Z,93.40
2018-07-06T16:14:44.709Z,93.40
2018-07-06T16:17:13.224Z,93.70
2018-07-06T16:19:41.813Z,93.60
2018-07-06T16:22:10.362Z,93.60
2018-07-06T16:30:17.242Z,93.60
2018-07-06T16:32:45.818Z,93.70
2018-07-06T16:35:14.335Z,93.70
2018-07-06T16:37:42.858Z,93.60
2018-07-06T16:40:11.440Z,93.50
2018-07-06T16:42:39.953Z,93.50
2018-07-06T16:45:08.491Z,93.40
2018-07-06T16:47:37.006Z,93.40
2018-07-06T16:50:05.588Z,93.30
2018-07-06T16:52:34.248Z,93.40
2018-07-06T16:57:30.965Z,93.30
2018-07-06T16:59:59.501Z,93.40
2018-07-06T17:02:28.040Z,93.30
2018-07-06T17:04:56.610Z,93.20
2018-07-06T17:07:25.148Z,93.20
2018-07-06T17:09:53.684Z,93.60
2018-07-06T17:12:22.218Z,93.30
2018-07-06T17:14:50.729Z,93.20
2018-07-06T17:17:19.222Z,93.20
2018-07-06T17:19:47.802Z,93.30
2018-07-06T17:22:16.340Z,93.20
2018-07-06T17:24:44.882Z,93.20
2018-07-06T17:27:13.379Z,93.20
2018-07-06T17:29:41.943Z,93.20
2018-07-06T17:32:10.534Z,93.20
2018-07-06T17:34:39.187Z,93.30
2018-07-06T17:37:07.710Z,93.20
2018-07-06T17:39:36.299Z,93.20
2018-07-06T17:42:04.822Z,93.20
2018-07-06T17:44:33.341Z,93.10
2018-07-06T17:47:02.009Z,93.20
2018-07-06T17:49:30.562Z,93.50
2018-07-06T17:51:59.070Z,93.20
2018-07-06T17:54:27.594Z,93.30
2018-07-06T17:56:56.277Z,93.30
2018-07-06T17:59:24.914Z,93.40
2018-07-06T18:04:21.771Z,93.40
2018-07-06T18:06:50.368Z,93.40
2018-07-06T18:09:18.990Z,93.40
2018-07-06T18:11:47.661Z,93.30
2018-07-06T18:14:19.203Z,93.40
2018-07-06T18:16:47.878Z,93.40
2018-07-06T18:19:16.492Z,93.40
2018-07-06T18:21:45.139Z,93.40
2018-07-06T18:24:14.006Z,93.40
2018-07-06T18:26:42.604Z,93.40
2018-07-06T18:31:39.614Z,93.30
2018-07-06T18:34:08.147Z,93.30
2018-07-06T18:36:36.722Z,93.40
2018-07-06T18:39:06.070Z,93.40
2018-07-06T18:41:35.811Z,93.70
2018-07-06T18:44:04.394Z,93.40
2018-07-06T18:46:32.947Z,93.40
2018-07-06T18:49:01.458Z,93.40
2018-07-06T18:51:30.099Z,93.40
2018-07-06T18:53:58.628Z,93.40
2018-07-06T18:56:27.251Z,93.50
2018-07-06T18:58:55.793Z,93.50
2018-07-06T19:01:24.375Z,93.40
2018-07-06T19:03:52.986Z,93.50
2018-07-06T19:06:21.530Z,93.50
2018-07-06T19:08:50.064Z,93.40
2018-07-06T19:11:18.665Z,93.50
2018-07-06T19:16:15.523Z,93.40
2018-07-06T19:18:44.597Z,93.40
2018-07-06T19:21:13.184Z,93.40
2018-07-06T19:23:41.747Z,93.40
2018-07-06T19:26:10.410Z,93.40
2018-07-06T19:28:38.938Z,93.40
2018-07-06T19:31:07.593Z,93.40
2018-07-06T19:33:36.145Z,93.40
2018-07-06T19:36:04.959Z,93.40
2018-07-06T19:38:33.510Z,93.60
2018-07-06T19:41:02.129Z,93.60
2018-07-06T19:43:30.647Z,93.50
2018-07-06T19:45:59.385Z,93.50
2018-07-06T19:48:28.006Z,93.50
2018-07-06T19:50:56.575Z,93.50
2018-07-06T19:53:25.233Z,93.60
2018-07-06T19:55:53.808Z,93.60
2018-07-06T19:58:22.494Z,93.70
2018-07-06T20:00:51.540Z,93.70
2018-07-06T20:03:20.302Z,93.70
2018-07-06T20:05:48.976Z,93.80
2018-07-06T20:08:17.626Z,93.60
2018-07-06T20:10:46.159Z,93.70
2018-07-06T20:13:14.707Z,94.00
2018-07-06T20:15:43.311Z,93.60
2018-07-06T20:18:11.876Z,93.60
2018-07-06T20:23:08.888Z,93.50
2018-07-06T20:25:37.409Z,93.60
2018-07-06T20:28:06.349Z,93.70
2018-07-06T20:30:34.893Z,93.70
2018-07-06T20:35:31.631Z,93.40
2018-07-06T20:38:00.218Z,93.50
2018-07-06T20:42:57.283Z,93.50
2018-07-06T20:45:25.822Z,93.60
2018-07-06T20:47:54.368Z,93.70
2018-07-06T20:52:51.155Z,93.60
2018-07-06T20:55:19.661Z,93.70
2018-07-06T20:57:48.203Z,93.70
2018-07-06T21:00:16.788Z,93.70
2018-07-06T21:02:45.376Z,93.80
2018-07-06T21:05:13.906Z,93.80
2018-07-06T21:07:42.470Z,93.80
2018-07-06T21:10:10.983Z,94.10
2018-07-06T21:12:39.541Z,93.70
2018-07-06T21:15:08.123Z,93.90
2018-07-06T21:17:36.663Z,93.80
2018-07-06T21:20:05.225Z,93.80
2018-07-06T21:22:33.758Z,93.90
2018-07-06T21:25:02.286Z,93.80
2018-07-06T21:27:30.812Z,93.70
2018-07-06T21:29:59.378Z,93.90
2018-07-06T21:32:28.203Z,94.10
2018-07-06T21:34:56.739Z,93.90
2018-07-06T21:37:25.267Z,93.80
2018-07-06T21:39:53.806Z,94.00
2018-07-06T21:42:22.308Z,93.80
2018-07-06T21:44:50.846Z,93.90
2018-07-06T21:47:19.405Z,93.90
2018-07-06T21:49:47.970Z,93.80
2018-07-06T21:52:16.492Z,93.90
2018-07-06T21:54:45.165Z,93.80
2018-07-06T21:57:13.666Z,93.80
2018-07-06T21:59:42.218Z,93.90
2018-07-06T22:02:14.281Z,93.90
2018-07-06T22:04:43.910Z,94.20
2018-07-06T22:07:12.809Z,93.90
2018-07-06T22:09:41.476Z,93.90
2018-07-06T22:12:10.038Z,93.90
2018-07-06T22:14:39.439Z,93.80
2018-07-06T22:17:08.149Z,93.90
2018-07-06T22:19:36.723Z,93.80
2018-07-06T22:22:05.525Z,93.90
2018-07-06T22:24:34.131Z,93.90
2018-07-06T22:27:02.757Z,93.80
2018-07-06T22:31:59.565Z,93.80
2018-07-06T22:34:28.168Z,93.90
2018-07-06T22:36:56.743Z,93.90
2018-07-06T22:39:25.323Z,93.90
2018-07-06T22:41:53.957Z,93.80
2018-07-06T22:44:22.540Z,93.80
2018-07-06T22:49:19.330Z,93.80
2018-07-06T22:51:47.898Z,93.80
2018-07-06T22:54:16.510Z,93.80
2018-07-06T22:56:45.076Z,93.80
2018-07-06T22:59:13.653Z,93.70
2018-07-06T23:01:42.441Z,93.70
2018-07-06T23:04:11.032Z,93.90
2018-07-06T23:06:39.557Z,93.80
2018-07-06T23:09:08.437Z,93.90
2018-07-06T23:11:37.030Z,93.80
2018-07-06T23:14:05.619Z,93.80
2018-07-06T23:16:34.115Z,93.90
2018-07-06T23:19:02.621Z,93.80
2018-07-06T23:21:31.247Z,93.80
2018-07-06T23:23:59.874Z,93.80
2018-07-06T23:26:28.410Z,93.80
2018-07-06T23:28:56.977Z,93.80
2018-07-06T23:31:25.556Z,93.80
2018-07-06T23:33:54.051Z,93.90
2018-07-06T23:36:22.600Z,93.80
2018-07-06T23:38:51.116Z,93.70
2018-07-06T23:41:19.700Z,93.80
2018-07-06T23:43:48.243Z,93.90
2018-07-06T23:46:16.845Z,93.80
2018-07-06T23:48:45.369Z,93.90
2018-07-06T23:51:13.994Z,93.80
2018-07-06T23:56:10.798Z,94.00
2018-07-06T23:58:39.336Z,93.90
